Irwin, Missouri
Current Conditions -  °F | °C
As of 1:55 PM on Thursday 30 Oct 2014 (Local Time) from KPTS Reporting Station
Clear Clear  
Wind Chill: 71°   Ceiling: Unl
Heat Index: 71°   Visibility: 10mi
Dew Point: 45°   Wind: 12mph
Humidity: 39%   Direction: 330°NNW
Pressure: 30.01"   Gusts: 17mph
Location:  37.5121°N, 94.2674°W
Report Text: KPTS 301855Z AUTO 33010G15KT 10SM CLR 22/07 A3001 RMK AO2 T02170070
Loading
Personal Weather Stations






























Interactive Weather Map
Tropical Storm Tracking
New forecast layout! Learn more

10-Day Weather Forecast

Advertisements
Track Severe Weather on mobile